Time;durP1;ratioP1;P1;durP2;ratioP2;P2;SDS_P1;SDS_P2;PMS_P1;PMS_P2;Temp;Humidity;BMP_temperature;BMP_pressure;BME280_temperature;BME280_humidity;BME280_pressure;Samples;Min_cycle;Max_cycle;Signal;HPM_P1;HPM_P2
2021/06/13 00:01:53;;;;;;;6.53;2.50;;;;;;;13.62;81.44;99706.84;5099345;28;20048;-46
2021/06/13 00:04:19;;;;;;;5.75;3.00;;;;;;;13.63;81.63;99705.09;5099303;28;20097;-47
2021/06/13 00:06:45;;;;;;;7.18;2.88;;;;;;;13.59;82.12;99708.75;5099279;28;20052;-46
2021/06/13 00:09:11;;;;;;;5.82;2.80;;;;;;;13.59;82.16;99720.13;5098923;28;20368;-46
2021/06/13 00:11:37;;;;;;;7.45;2.90;;;;;;;13.60;82.21;99718.34;5098325;28;20052;-46
2021/06/13 00:14:02;;;;;;;4.05;2.65;;;;;;;13.59;82.58;99711.38;5098826;28;20040;-47
2021/06/13 00:16:28;;;;;;;4.60;2.95;;;;;;;13.56;82.46;99713.22;5099099;28;20058;-47
2021/06/13 00:18:54;;;;;;;4.93;2.60;;;;;;;13.58;82.40;99718.41;5099073;28;20360;-47
2021/06/13 00:21:20;;;;;;;5.72;3.17;;;;;;;13.61;82.68;99714.81;5098683;28;20185;-47
2021/06/13 00:23:46;;;;;;;7.97;3.70;;;;;;;13.61;83.21;99717.44;5098676;28;20059;-46
2021/06/13 00:26:12;;;;;;;5.03;3.20;;;;;;;13.60;83.00;99727.09;5098426;28;20452;-47
2021/06/13 00:28:37;;;;;;;7.75;3.10;;;;;;;13.61;83.26;99722.69;5098860;28;20051;-47
2021/06/13 00:31:04;;;;;;;10.90;3.20;;;;;;;13.60;83.17;99727.09;5098823;28;20059;-47
2021/06/13 00:33:30;;;;;;;6.07;3.25;;;;;;;13.59;83.28;99716.66;5098665;28;20070;-47
2021/06/13 00:35:55;;;;;;;3.25;2.58;;;;;;;13.61;83.29;99715.66;5098381;28;20432;-46
2021/06/13 00:38:21;;;;;;;4.68;3.45;;;;;;;13.60;83.43;99719.22;5098669;28;20042;-46
2021/06/13 00:40:47;;;;;;;5.30;3.15;;;;;;;13.62;83.34;99716.53;5098474;28;20040;-47
2021/06/13 00:43:13;;;;;;;4.25;2.85;;;;;;;13.62;83.18;99716.53;5098350;28;20044;-47
2021/06/13 00:45:40;;;;;;;6.35;3.65;;;;;;;13.63;83.60;99711.19;5081426;28;20108;-47
2021/06/13 00:48:06;;;;;;;4.38;3.00;;;;;;;13.64;83.55;99715.53;5097297;28;20067;-47
2021/06/13 00:50:40;;;;;;;6.25;3.20;;;;;;;13.67;83.59;99715.41;5098122;28;20482;-47
2021/06/13 00:53:07;;;;;;;6.28;3.22;;;;;;;13.67;83.61;99715.41;5097498;28;20085;-47
2021/06/13 00:55:37;;;;;;;3.10;2.60;;;;;;;13.71;83.55;99711.75;5097528;28;20062;-47
2021/06/13 00:58:04;;;;;;;8.32;2.95;;;;;;;13.74;83.47;99708.97;5097533;28;20044;-47
2021/06/13 01:00:30;;;;;;;7.18;3.92;;;;;;;13.74;83.27;99711.63;5097357;28;20054;-47
2021/06/13 01:02:56;;;;;;;5.03;2.75;;;;;;;13.76;83.25;99719.47;5097029;28;20063;-47
2021/06/13 01:05:24;;;;;;;4.55;2.92;;;;;;;13.76;83.42;99716.84;5097290;28;20391;-46
2021/06/13 01:08:18;;;;;;;4.63;3.15;;;;;;;13.78;82.59;99717.66;5096924;28;20059;-47
2021/06/13 01:10:51;;;;;;;6.65;3.40;;;;;;;13.73;82.64;99727.50;5098016;28;20104;-47
2021/06/13 01:13:21;;;;;;;5.57;3.30;;;;;;;13.69;82.70;99724.13;5080004;28;20385;-47
2021/06/13 01:15:52;;;;;;;3.95;3.05;;;;;;;13.69;82.47;99726.75;5098185;28;20052;-47
2021/06/13 01:18:36;;;;;;;5.75;3.60;;;;;;;13.64;82.49;99712.91;5096757;28;20360;-47
2021/06/13 01:21:05;;;;;;;5.88;3.20;;;;;;;13.62;82.37;99720.03;5098210;28;20113;-47
2021/06/13 01:23:50;;;;;;;7.90;3.83;;;;;;;13.58;82.51;99718.41;5063931;28;20094;-46
2021/06/13 01:26:25;;;;;;;8.95;3.30;;;;;;;13.54;82.40;99715.03;5097493;28;20113;-47
2021/06/13 01:28:58;;;;;;;7.45;3.10;;;;;;;13.51;82.38;99719.56;5097750;28;20052;-47
2021/06/13 01:31:54;;;;;;;6.78;3.20;;;;;;;13.46;82.31;99716.25;5097125;28;20456;-47
2021/06/13 01:34:44;;;;;;;6.07;3.05;;;;;;;13.42;82.17;99715.53;5094947;28;20372;-47
2021/06/13 01:37:17;;;;;;;6.13;3.00;;;;;;;13.40;82.59;99716.50;5096477;28;20348;-47
2021/06/13 01:39:45;;;;;;;4.28;3.47;;;;;;;13.40;82.77;99719.97;5096606;28;20055;-47
2021/06/13 01:42:14;;;;;;;9.45;3.45;;;;;;;13.40;82.85;99719.13;5080217;28;20040;-46
2021/06/13 01:44:45;;;;;;;6.30;2.90;;;;;;;13.40;83.28;99714.72;5096345;28;20044;-46
2021/06/13 01:47:14;;;;;;;7.00;3.08;;;;;;;13.41;83.56;99710.31;5096502;28;20355;-47
2021/06/13 01:49:42;;;;;;;6.57;3.30;;;;;;;13.43;83.94;99711.13;5096442;28;20047;-47
2021/06/13 01:52:10;;;;;;;3.28;2.90;;;;;;;13.48;83.87;99714.41;5096281;28;20100;-47
2021/06/13 01:54:36;;;;;;;5.15;3.00;;;;;;;13.49;83.84;99717.00;5096049;28;20043;-47
2021/06/13 01:57:04;;;;;;;6.47;3.22;;;;;;;13.54;83.54;99715.03;5097197;28;20127;-47
2021/06/13 01:59:40;;;;;;;5.25;2.67;;;;;;;13.53;83.74;99723.00;5095974;28;20444;-47
2021/06/13 02:02:07;;;;;;;8.10;3.50;;;;;;;13.54;83.71;99724.69;5062719;28;20064;-47
2021/06/13 02:04:37;;;;;;;11.32;3.60;;;;;;;13.50;84.25;99723.97;5079805;28;20052;-46
2021/06/13 02:07:10;;;;;;;11.95;3.25;;;;;;;13.56;83.44;99725.50;5096264;28;20053;-46
2021/06/13 02:09:36;;;;;;;8.80;3.92;;;;;;;13.61;83.27;99726.19;5079012;28;20067;-46
2021/06/13 02:12:06;;;;;;;7.93;3.13;;;;;;;13.60;83.22;99734.16;5063129;28;20040;-46
2021/06/13 02:14:36;;;;;;;7.70;4.05;;;;;;;13.53;83.23;99729.13;5096006;28;20059;-47
2021/06/13 02:17:05;;;;;;;9.82;3.63;;;;;;;13.62;83.25;99740.22;5079270;28;20084;-47
2021/06/13 02:19:34;;;;;;;6.25;2.80;;;;;;;13.59;83.40;99740.34;5095607;28;20429;-47
2021/06/13 02:22:07;;;;;;;8.57;3.13;;;;;;;13.64;83.25;99741.84;5080213;28;20040;-47
2021/06/13 02:24:36;;;;;;;6.90;2.70;;;;;;;13.61;83.36;99747.22;5095839;28;20059;-47
2021/06/13 02:27:03;;;;;;;4.38;3.03;;;;;;;13.61;83.35;99747.22;5062113;28;20445;-46
2021/06/13 02:29:30;;;;;;;8.27;3.15;;;;;;;13.62;83.25;99756.84;5095799;28;20111;-46
2021/06/13 02:31:56;;;;;;;8.40;3.05;;;;;;;13.59;83.30;99751.72;5095708;28;20056;-46
2021/06/13 02:34:24;;;;;;;5.50;3.25;;;;;;;13.63;82.85;99758.56;5079032;28;20052;-46
2021/06/13 02:36:54;;;;;;;8.77;3.47;;;;;;;13.61;82.68;99765.66;5096139;28;20105;-46
2021/06/13 02:39:20;;;;;;;6.63;2.50;;;;;;;13.57;83.11;99759.66;5078934;28;20039;-47
2021/06/13 02:41:48;;;;;;;4.20;3.20;;;;;;;13.61;82.96;99768.28;5095393;28;20404;-47
2021/06/13 02:44:15;;;;;;;6.53;3.30;;;;;;;13.61;82.47;99767.44;5095246;28;20048;-46
2021/06/13 02:46:41;;;;;;;4.63;3.25;;;;;;;13.56;82.56;99765.84;5096358;28;20052;-46
2021/06/13 02:49:08;;;;;;;6.30;3.20;;;;;;;13.56;82.13;99765.84;5096490;28;20443;-46
2021/06/13 02:51:35;;;;;;;6.78;4.20;;;;;;;13.53;81.81;99765.09;5095504;28;20059;-46
2021/06/13 02:54:04;;;;;;;8.15;3.78;;;;;;;13.45;81.80;99775.88;5096264;28;20043;-46
2021/06/13 02:57:01;;;;;;;6.72;3.22;;;;;;;13.44;81.74;99775.97;5078560;28;20055;-46
2021/06/13 03:00:10;;;;;;;11.98;3.92;;;;;;;13.37;81.38;99779.75;5089091;28;20108;-46
2021/06/13 03:02:45;;;;;;;7.25;2.72;;;;;;;13.33;81.82;99779.00;5054194;28;20426;-46
2021/06/13 03:05:12;;;;;;;6.95;2.90;;;;;;;13.31;81.68;99773.78;5054711;28;20060;-46
2021/06/13 03:07:38;;;;;;;5.70;2.95;;;;;;;13.25;81.54;99767.88;5095085;28;20063;-46
2021/06/13 03:10:06;;;;;;;7.50;2.50;;;;;;;13.27;81.54;99782.72;5062369;28;20044;-46
2021/06/13 03:12:33;;;;;;;5.63;2.50;;;;;;;13.22;81.58;99774.06;5078273;28;20077;-46
2021/06/13 03:14:59;;;;;;;6.45;2.85;;;;;;;13.25;81.50;99788.94;5061797;28;20059;-46
2021/06/13 03:17:27;;;;;;;6.82;2.72;;;;;;;13.25;81.36;99789.78;5062391;28;20044;-46
2021/06/13 03:19:54;;;;;;;11.77;2.30;;;;;;;13.21;81.31;99798.66;5096566;28;20041;-46
2021/06/13 03:22:20;;;;;;;4.80;2.40;;;;;;;13.19;80.79;99797.84;5099306;28;20101;-46
2021/06/13 03:24:47;;;;;;;7.90;3.65;;;;;;;13.16;80.96;99794.47;5099497;28;20047;-46
2021/06/13 03:27:13;;;;;;;5.32;2.72;;;;;;;13.18;81.14;99803.19;5082113;28;20131;-46
2021/06/13 03:29:40;;;;;;;7.43;2.80;;;;;;;13.18;80.95;99803.19;5098890;28;20417;-46
2021/06/13 03:32:10;;;;;;;6.40;2.72;;;;;;;13.18;80.96;99801.41;5082347;28;20043;-46
2021/06/13 03:34:39;;;;;;;8.20;2.60;;;;;;;13.22;80.80;99810.03;5099635;28;20429;-46
2021/06/13 03:37:06;;;;;;;7.53;2.22;;;;;;;13.19;80.93;99818.03;5065949;28;20063;-46
2021/06/13 03:39:33;;;;;;;7.65;2.70;;;;;;;13.19;80.79;99815.41;5082186;28;20325;-46
2021/06/13 03:41:59;;;;;;;6.55;2.55;;;;;;;13.22;80.93;99815.31;5099524;28;20429;-46
2021/06/13 03:44:25;;;;;;;7.75;3.33;;;;;;;13.31;80.87;99828.16;5098863;28;20097;-46
2021/06/13 03:46:50;;;;;;;5.80;2.67;;;;;;;13.33;80.83;99828.97;5082223;28;20040;-46
2021/06/13 03:49:17;;;;;;;4.07;2.40;;;;;;;13.40;81.73;99837.50;5081917;28;20044;-46
2021/06/13 03:51:43;;;;;;;3.38;2.15;;;;;;;13.51;81.58;99838.81;5081820;28;20086;-46
2021/06/13 03:54:09;;;;;;;5.88;2.38;;;;;;;13.57;81.12;99849.13;5098612;28;20082;-46
2021/06/13 03:56:40;;;;;;;6.57;2.85;;;;;;;13.65;80.83;99843.59;5098377;28;20040;-46
2021/06/13 03:59:06;;;;;;;7.20;2.85;;;;;;;13.82;81.06;99848.22;5098583;28;20348;-46
2021/06/13 04:01:31;;;;;;;7.43;3.53;;;;;;;13.87;80.32;99842.78;5098276;28;20032;-46
2021/06/13 04:03:57;;;;;;;5.75;2.83;;;;;;;14.12;80.31;99846.19;5098154;28;20066;-46
2021/06/13 04:06:23;;;;;;;5.10;2.22;;;;;;;14.36;79.87;99851.38;5098220;28;20070;-46
2021/06/13 04:08:50;;;;;;;9.05;2.95;;;;;;;14.55;78.21;99855.03;5081566;28;20440;-46
2021/06/13 04:11:16;;;;;;;4.85;2.42;;;;;;;14.69;77.40;99854.50;5081656;28;20109;-46
2021/06/13 04:13:41;;;;;;;3.83;2.30;;;;;;;14.68;76.71;99866.78;5099080;28;20044;-46
2021/06/13 04:16:07;;;;;;;5.88;2.20;;;;;;;14.60;76.48;99861.00;5064521;28;20372;-47
2021/06/13 04:18:34;;;;;;;4.38;2.25;;;;;;;14.75;76.60;99867.41;5098740;28;20420;-46
2021/06/13 04:21:00;;;;;;;10.32;2.38;;;;;;;14.91;76.32;99873.75;5097931;28;20109;-46
2021/06/13 04:23:25;;;;;;;8.00;2.25;;;;;;;15.18;75.75;99871.75;5098686;28;20048;-46
2021/06/13 04:25:51;;;;;;;9.32;3.00;;;;;;;15.66;74.56;99872.28;5097782;28;20138;-47
2021/06/13 04:28:17;;;;;;;6.28;2.10;;;;;;;15.83;72.50;99877.72;5098573;28;20059;-46
2021/06/13 04:31:01;;;;;;;5.40;1.95;;;;;;;15.96;70.09;99869.22;5098223;28;20040;-47
2021/06/13 04:33:27;;;;;;;7.07;2.42;;;;;;;16.05;71.04;99880.22;5098336;28;20047;-46
2021/06/13 04:35:53;;;;;;;10.23;2.55;;;;;;;16.04;69.86;99877.63;5097524;28;20052;-46
2021/06/13 04:38:19;;;;;;;11.27;2.00;;;;;;;15.93;69.90;99874.66;5098397;28;20342;-46
2021/06/13 04:40:45;;;;;;;8.07;2.60;;;;;;;15.91;70.68;99876.50;5098354;28;20090;-46
2021/06/13 04:43:10;;;;;;;7.10;2.28;;;;;;;15.83;69.93;99875.06;5097478;28;20044;-46
2021/06/13 04:45:36;;;;;;;7.32;2.40;;;;;;;15.91;70.00;99879.13;5098625;28;20071;-46
2021/06/13 04:48:06;;;;;;;7.07;1.95;;;;;;;16.24;70.27;99885.47;5098317;28;20206;-46
2021/06/13 04:50:33;;;;;;;10.50;2.05;;;;;;;16.39;68.95;99883.91;5097648;28;20205;-46
2021/06/13 04:52:58;;;;;;;6.47;2.47;;;;;;;16.64;68.67;99888.88;5097153;28;20459;-47
2021/06/13 04:55:47;;;;;;;7.38;2.45;;;;;;;16.84;66.73;99889.72;5097254;28;20115;-47
2021/06/13 04:58:21;;;;;;;5.45;2.22;;;;;;;16.87;66.68;99889.56;5097167;28;20393;-47
2021/06/13 05:00:47;;;;;;;4.82;2.00;;;;;;;17.14;66.53;99880.22;5097378;28;20113;-47
2021/06/13 05:03:13;;;;;;;5.10;1.40;;;;;;;17.49;65.46;99882.84;5098188;28;20048;-47
2021/06/13 05:05:39;;;;;;;4.72;1.60;;;;;;;17.75;64.92;99882.34;5097970;28;20055;-47
2021/06/13 05:08:05;;;;;;;6.90;1.50;;;;;;;18.09;64.24;99895.56;5097245;28;20048;-47
2021/06/13 05:10:30;;;;;;;8.18;2.13;;;;;;;18.26;62.22;99897.28;5098100;28;20075;-47
2021/06/13 05:12:56;;;;;;;6.25;2.05;;;;;;;18.21;62.18;99905.50;5096766;28;20044;-47
2021/06/13 05:15:22;;;;;;;4.68;2.03;;;;;;;18.21;61.36;99898.41;5098277;28;20113;-46
2021/06/13 05:17:48;;;;;;;8.45;1.90;;;;;;;18.63;60.75;99896.09;5096783;28;20044;-47
2021/06/13 05:20:14;;;;;;;4.75;1.70;;;;;;;18.83;60.05;99894.97;5097659;28;20058;-47
2021/06/13 05:22:56;;;;;;;6.10;1.70;;;;;;;19.18;58.30;99900.03;5080189;28;20383;-47
2021/06/13 05:25:22;;;;;;;5.43;1.53;;;;;;;19.22;59.27;99910.38;5097647;28;20185;-47
2021/06/13 05:27:48;;;;;;;8.80;2.13;;;;;;;19.59;58.20;99910.81;5097536;28;20274;-47
2021/06/13 05:30:14;;;;;;;4.05;1.30;;;;;;;19.91;56.22;99903.56;5097376;28;20048;-47
2021/06/13 05:32:40;;;;;;;2.15;1.15;;;;;;;20.20;56.40;99912.38;5097540;28;20117;-47
2021/06/13 05:35:06;;;;;;;2.88;1.35;;;;;;;20.49;55.21;99918.50;5097554;28;20117;-47
2021/06/13 05:37:32;;;;;;;9.00;2.28;;;;;;;20.69;53.65;99916.38;5097567;28;20047;-47
2021/06/13 05:39:58;;;;;;;8.48;1.65;;;;;;;20.94;52.66;99915.63;5096327;28;20048;-47
2021/06/13 05:42:24;;;;;;;5.57;1.42;;;;;;;21.19;53.33;99922.84;5096874;28;20075;-47
2021/06/13 05:44:49;;;;;;;9.55;1.30;;;;;;;21.39;51.47;99918.84;5097117;28;20059;-47
2021/06/13 05:47:15;;;;;;;4.97;1.65;;;;;;;21.58;51.09;99923.75;5097388;28;20047;-47
2021/06/13 05:49:41;;;;;;;3.92;1.67;;;;;;;21.79;49.87;99911.63;5097364;28;20052;-47
2021/06/13 05:52:07;;;;;;;7.65;1.83;;;;;;;21.59;48.96;99929.00;5096430;28;20325;-47
2021/06/13 05:54:34;;;;;;;7.43;2.10;;;;;;;21.51;48.78;99930.47;5097159;28;20059;-47
2021/06/13 05:56:59;;;;;;;4.78;1.60;;;;;;;21.34;49.22;99927.13;5079157;28;20051;-47
2021/06/13 05:59:25;;;;;;;4.45;1.42;;;;;;;21.41;48.29;99930.25;5096897;28;20044;-47
2021/06/13 06:01:51;;;;;;;7.68;2.20;;;;;;;21.31;48.09;99932.66;5097390;28;20051;-47
2021/06/13 06:04:17;;;;;;;5.93;1.50;;;;;;;21.45;49.12;99937.94;5096740;28;20067;-47
2021/06/13 06:06:42;;;;;;;6.40;1.83;;;;;;;21.56;48.01;99945.19;5096796;28;20044;-47
2021/06/13 06:09:08;;;;;;;6.28;1.48;;;;;;;21.65;49.08;99943.72;5096622;28;20352;-47
2021/06/13 06:11:39;;;;;;;5.03;1.60;;;;;;;21.68;47.23;99956.84;5096943;28;20135;-47
2021/06/13 06:14:05;;;;;;;4.50;1.90;;;;;;;21.73;47.08;99954.69;5096851;28;20040;-47
2021/06/13 06:16:31;;;;;;;8.95;1.83;;;;;;;21.65;47.96;99954.38;5096847;28;20359;-47
2021/06/13 06:18:57;;;;;;;5.85;1.58;;;;;;;21.61;47.06;99955.53;5096813;28;20356;-47
2021/06/13 06:21:23;;;;;;;5.60;1.90;;;;;;;21.65;47.17;99957.88;5095858;28;20055;-47
2021/06/13 06:23:49;;;;;;;8.23;1.75;;;;;;;21.57;48.08;99964.69;5096443;28;20040;-47
2021/06/13 06:26:15;;;;;;;3.88;1.45;;;;;;;21.62;48.74;99966.09;5096405;28;20063;-47
2021/06/13 06:28:41;;;;;;;4.93;1.85;;;;;;;21.72;48.11;99960.13;5096430;28;20036;-47
2021/06/13 06:31:06;;;;;;;5.10;2.00;;;;;;;21.64;47.64;99969.53;5096397;28;20096;-47
2021/06/13 06:33:32;;;;;;;6.15;2.20;;;;;;;21.39;46.31;99969.47;5096270;28;20062;-47
2021/06/13 06:35:58;;;;;;;5.03;1.77;;;;;;;21.06;47.84;99977.84;5096733;28;20051;-47
2021/06/13 06:38:24;;;;;;;5.38;1.70;;;;;;;20.86;47.40;99981.81;5096259;28;20048;-47
2021/06/13 06:40:50;;;;;;;5.60;1.45;;;;;;;21.04;48.02;99980.63;5096515;28;20048;-47
2021/06/13 06:43:16;;;;;;;6.88;1.70;;;;;;;21.35;48.17;99979.47;5096459;28;20047;-47
2021/06/13 06:45:41;;;;;;;7.80;2.25;;;;;;;21.31;47.34;99983.25;5096458;28;20113;-47
2021/06/13 06:48:07;;;;;;;5.45;1.98;;;;;;;21.42;47.56;99980.78;5096150;28;20048;-47
2021/06/13 06:50:33;;;;;;;8.73;1.70;;;;;;;21.67;47.49;99979.09;5096398;28;20134;-47
2021/06/13 06:52:59;;;;;;;7.47;1.80;;;;;;;21.66;46.48;99974.72;5095996;28;20120;-47
2021/06/13 06:55:25;;;;;;;5.47;2.28;;;;;;;21.59;47.43;99973.44;5095357;28;20130;-47
2021/06/13 06:57:50;;;;;;;3.95;1.58;;;;;;;21.72;46.71;99971.66;5096305;28;20048;-47
2021/06/13 07:00:17;;;;;;;4.95;1.75;;;;;;;21.98;45.25;99980.50;5096294;28;20460;-47
2021/06/13 07:02:43;;;;;;;4.97;1.55;;;;;;;21.54;45.29;99987.06;5095898;28;20360;-47
2021/06/13 07:05:09;;;;;;;6.38;1.60;;;;;;;21.24;45.83;99985.47;5095143;28;20040;-47
2021/06/13 07:07:35;;;;;;;4.38;1.55;;;;;;;20.80;46.42;99984.88;5096193;28;20055;-47
2021/06/13 07:10:01;;;;;;;5.30;2.35;;;;;;;20.74;47.09;99991.47;5095895;28;20047;-47
2021/06/13 07:12:28;;;;;;;7.20;2.28;;;;;;;20.70;46.69;99992.59;5095170;28;20040;-47
2021/06/13 07:14:54;;;;;;;5.82;2.00;;;;;;;20.37;46.61;100003.53;5095837;28;20105;-47
2021/06/13 07:17:20;;;;;;;6.47;1.73;;;;;;;20.21;47.07;100001.81;5096131;28;20059;-47
2021/06/13 07:19:46;;;;;;;5.85;1.50;;;;;;;20.05;46.89;100009.91;5096063;28;20071;-47
2021/06/13 07:22:12;;;;;;;5.28;1.38;;;;;;;19.84;46.99;100008.53;5095812;28;20352;-47
2021/06/13 07:24:37;;;;;;;3.92;1.67;;;;;;;20.18;46.46;100014.44;5096092;28;20055;-47
2021/06/13 07:27:04;;;;;;;14.30;1.95;;;;;;;20.03;47.13;100010.94;5096374;28;20094;-47
2021/06/13 07:29:29;;;;;;;4.90;1.45;;;;;;;19.83;47.66;100017.47;5096028;28;20170;-47
2021/06/13 07:31:55;;;;;;;5.65;1.40;;;;;;;19.95;47.99;100021.16;5095119;28;20460;-47
2021/06/13 07:34:21;;;;;;;7.68;1.92;;;;;;;20.42;47.82;100012.09;5095616;28;20044;-47
2021/06/13 07:36:47;;;;;;;6.55;1.98;;;;;;;20.74;46.78;100012.75;5095704;28;20066;-47
2021/06/13 07:39:13;;;;;;;5.80;1.50;;;;;;;21.19;45.69;100013.38;5095597;28;20060;-47
2021/06/13 07:41:39;;;;;;;6.90;1.88;;;;;;;21.20;44.75;100023.06;5095612;28;20048;-47
2021/06/13 07:44:04;;;;;;;5.50;1.45;;;;;;;21.31;44.53;100028.53;5096171;28;20044;-47
2021/06/13 07:46:33;;;;;;;10.93;1.83;;;;;;;21.29;43.14;100017.16;5095862;28;20106;-47
2021/06/13 07:48:59;;;;;;;4.97;1.20;;;;;;;21.06;42.41;100026.66;5095848;28;20078;-47
2021/06/13 07:51:24;;;;;;;3.92;1.42;;;;;;;20.61;43.65;100031.31;5095600;28;20040;-47
2021/06/13 07:53:50;;;;;;;4.95;1.30;;;;;;;20.38;45.62;100026.53;5095726;28;20044;-47
2021/06/13 07:56:16;;;;;;;6.25;1.65;;;;;;;20.07;45.47;100031.91;5095763;28;20063;-47
2021/06/13 07:58:42;;;;;;;5.90;1.83;;;;;;;19.92;45.91;100031.97;5095755;28;20048;-47
2021/06/13 08:01:08;;;;;;;6.07;2.08;;;;;;;20.23;46.99;100034.50;5096270;28;20447;-47
2021/06/13 08:03:33;;;;;;;12.57;3.00;;;;;;;20.22;46.20;100029.28;5094566;28;20082;-47
2021/06/13 08:05:59;;;;;;;7.65;2.00;;;;;;;20.04;45.78;100040.06;5096734;28;20055;-47
2021/06/13 08:08:25;;;;;;;8.35;2.13;;;;;;;19.76;46.72;100054.19;5098998;28;20052;-47
2021/06/13 08:10:51;;;;;;;9.68;1.75;;;;;;;19.37;47.27;100055.53;5099210;28;20059;-47
2021/06/13 08:13:17;;;;;;;5.28;1.52;;;;;;;19.22;47.86;100055.53;5098897;28;20379;-47
2021/06/13 08:15:43;;;;;;;3.60;1.50;;;;;;;19.06;48.28;100061.72;5099123;28;20113;-47
2021/06/13 08:18:09;;;;;;;11.93;2.17;;;;;;;19.45;48.50;100063.03;5099119;28;20044;-47
2021/06/13 08:20:34;;;;;;;5.60;1.70;;;;;;;19.96;48.33;100057.47;5098769;28;20352;-47
2021/06/13 08:23:00;;;;;;;5.82;1.88;;;;;;;20.06;46.16;100032.03;5099052;28;20062;-47
2021/06/13 08:25:26;;;;;;;8.52;2.08;;;;;;;19.90;46.37;100057.81;5097610;28;20048;-47
2021/06/13 08:27:53;;;;;;;6.25;1.50;;;;;;;19.65;47.09;100067.22;5098937;28;20047;-47
2021/06/13 08:30:19;;;;;;;7.55;1.50;;;;;;;19.46;46.99;100067.41;5098599;28;20047;-47
2021/06/13 08:32:45;;;;;;;4.35;1.80;;;;;;;19.26;47.41;100075.66;5098780;28;20066;-47
2021/06/13 08:35:11;;;;;;;7.97;2.47;;;;;;;19.13;47.53;100070.19;5098807;28;20402;-47
2021/06/13 08:37:37;;;;;;;4.72;1.33;;;;;;;19.09;48.22;100073.97;5098457;28;20047;-47
2021/06/13 08:40:04;;;;;;;7.00;1.75;;;;;;;19.18;49.04;100059.31;5080636;28;20062;-47
2021/06/13 08:42:29;;;;;;;7.40;1.90;;;;;;;19.25;48.61;100076.63;5098629;28;20044;-47
2021/06/13 08:44:55;;;;;;;4.40;1.77;;;;;;;19.21;47.55;100077.75;5098336;28;20181;-47
2021/06/13 08:47:22;;;;;;;3.85;1.55;;;;;;;19.12;47.74;100077.31;5097698;28;20044;-47
2021/06/13 08:49:49;;;;;;;7.25;1.55;;;;;;;19.14;48.86;100079.84;5097365;28;20440;-47
2021/06/13 08:52:15;;;;;;;6.82;1.67;;;;;;;19.22;49.40;100090.06;5098456;28;20055;-47
2021/06/13 08:54:40;;;;;;;3.40;1.23;;;;;;;19.83;50.87;100076.78;5098090;28;20044;-46
2021/06/13 08:57:07;;;;;;;7.68;1.77;;;;;;;20.23;48.32;100079.69;5098646;28;20067;-47
2021/06/13 08:59:32;;;;;;;8.02;2.03;;;;;;;20.16;46.28;100090.81;5098037;28;20464;-47
2021/06/13 09:01:59;;;;;;;6.68;1.50;;;;;;;19.95;45.83;100087.63;5098048;28;20043;-46
2021/06/13 09:04:24;;;;;;;10.15;1.50;;;;;;;19.68;46.33;100095.44;5098230;28;20055;-47
2021/06/13 09:06:50;;;;;;;2.95;1.23;;;;;;;19.33;46.95;100103.56;5098205;28;20052;-47
2021/06/13 09:09:17;;;;;;;4.68;1.45;;;;;;;19.11;47.73;100101.28;5097860;28;20048;-47
2021/06/13 09:11:56;;;;;;;8.70;4.00;;;;;;;18.90;48.37;100096.22;5098114;28;20052;-47
2021/06/13 09:14:22;;;;;;;4.32;1.50;;;;;;;18.74;48.74;100102.44;5098011;28;20040;-47
2021/06/13 09:16:48;;;;;;;5.75;1.73;;;;;;;18.75;49.02;100102.38;5097754;28;20047;-47
2021/06/13 09:19:13;;;;;;;4.38;1.27;;;;;;;18.83;49.87;100104.59;5097041;28;20054;-47
2021/06/13 09:21:40;;;;;;;6.30;1.15;;;;;;;18.86;49.12;100109.75;5098208;28;20048;-47
2021/06/13 09:24:25;;;;;;;5.40;1.45;;;;;;;18.94;47.23;100119.94;5097857;28;20044;-47
2021/06/13 09:26:52;;;;;;;4.43;1.33;;;;;;;19.04;46.61;100121.97;5096699;28;20121;-47
2021/06/13 09:29:17;;;;;;;5.78;1.38;;;;;;;19.04;46.14;100124.63;5097426;28;20044;-47
2021/06/13 09:31:43;;;;;;;6.15;1.85;;;;;;;19.02;46.26;100123.03;5096802;28;20052;-46
2021/06/13 09:34:14;;;;;;;4.60;1.33;;;;;;;18.97;46.54;100128.56;5097322;28;20127;-47
2021/06/13 09:36:40;;;;;;;5.15;1.45;;;;;;;18.88;46.97;100132.59;5097364;28;20048;-47
2021/06/13 09:39:07;;;;;;;8.88;1.83;;;;;;;18.84;47.16;100130.19;5097235;28;20059;-46
2021/06/13 09:41:34;;;;;;;6.15;1.40;;;;;;;18.84;46.75;100122.22;5097553;28;20076;-46
2021/06/13 09:44:02;;;;;;;10.50;1.77;;;;;;;18.87;46.44;100135.31;5097487;28;20063;-47
2021/06/13 09:46:32;;;;;;;6.10;1.48;;;;;;;19.12;47.25;100124.22;5097442;28;20074;-47
2021/06/13 09:49:07;;;;;;;9.90;1.35;;;;;;;19.36;45.63;100122.00;5097420;28;20062;-47
2021/06/13 09:51:35;;;;;;;3.35;1.15;;;;;;;19.39;46.05;100127.13;5096484;28;20079;-47
2021/06/13 09:54:03;;;;;;;4.28;1.38;;;;;;;19.30;44.98;100130.31;5097244;28;20040;-47
2021/06/13 09:56:36;;;;;;;5.90;1.48;;;;;;;19.21;44.25;100139.66;5097747;28;20044;-47
2021/06/13 09:59:03;;;;;;;6.00;1.38;;;;;;;19.03;45.01;100125.59;5096966;28;20070;-47
2021/06/13 10:01:43;;;;;;;4.43;1.25;;;;;;;19.07;45.83;100129.78;5097133;28;20048;-46
2021/06/13 10:04:31;;;;;;;5.82;1.30;;;;;;;19.27;45.96;100134.00;5097145;28;20075;-47
2021/06/13 10:07:23;;;;;;;5.60;1.17;;;;;;;19.75;48.70;100134.81;5096778;28;20441;-47
2021/06/13 10:09:50;;;;;;;6.18;1.65;;;;;;;20.11;46.41;100138.09;5097374;28;20421;-46
2021/06/13 10:12:16;;;;;;;4.03;1.20;;;;;;;20.14;45.46;100149.38;5096729;28;20048;-46
2021/06/13 10:14:42;;;;;;;5.95;1.70;;;;;;;20.12;44.06;100148.66;5096845;28;20055;-46
2021/06/13 10:17:08;;;;;;;2.83;1.00;;;;;;;20.13;43.87;100141.50;5096012;28;20048;-46
2021/06/13 10:19:42;;;;;;;4.28;1.20;;;;;;;20.20;44.68;100149.03;5095656;28;20436;-46
2021/06/13 10:22:08;;;;;;;7.10;1.30;;;;;;;20.29;45.19;100145.81;5096582;28;20083;-46
2021/06/13 10:24:35;;;;;;;5.18;1.50;;;;;;;20.36;43.26;100143.66;5095905;28;20040;-46
2021/06/13 10:27:04;;;;;;;4.25;1.20;;;;;;;20.36;42.66;100154.28;5095480;28;20056;-46
2021/06/13 10:29:31;;;;;;;4.43;1.20;;;;;;;20.45;43.60;100160.88;5095810;28;20044;-46
2021/06/13 10:31:58;;;;;;;9.32;1.50;;;;;;;20.78;43.01;100144.66;5096392;28;20073;-46
2021/06/13 10:34:25;;;;;;;9.68;1.73;;;;;;;20.85;42.03;100153.97;5096552;28;20101;-46
2021/06/13 10:36:51;;;;;;;5.53;1.05;;;;;;;20.80;41.92;100150.75;5096619;28;20052;-46
2021/06/13 10:39:22;;;;;;;4.25;0.98;;;;;;;20.71;43.08;100151.31;5096560;28;20044;-46
2021/06/13 10:41:49;;;;;;;1.92;0.85;;;;;;;20.53;43.78;100159.47;5096597;28;20047;-46
2021/06/13 10:44:18;;;;;;;4.93;1.60;;;;;;;20.28;44.34;100167.19;5096223;28;20337;-46
2021/06/13 10:46:45;;;;;;;4.38;1.50;;;;;;;20.15;44.91;100174.16;5096479;28;20048;-46
2021/06/13 10:49:34;;;;;;;9.68;1.30;;;;;;;20.11;45.47;100162.88;5095575;28;20048;-46
2021/06/13 10:52:10;;;;;;;3.88;1.15;;;;;;;20.26;45.78;100174.41;5096150;28;20071;-51
2021/06/13 10:54:39;;;;;;;8.35;1.50;;;;;;;20.34;45.34;100164.16;5096349;28;20044;-52
2021/06/13 10:57:04;;;;;;;4.07;1.10;;;;;;;20.39;45.73;100162.09;5096335;28;20039;-50
2021/06/13 10:59:37;;;;;;;5.22;2.10;;;;;;;20.73;45.83;100163.59;5096108;28;20101;-50
2021/06/13 11:02:13;;;;;;;6.70;1.60;;;;;;;20.84;45.33;100170.91;5096324;28;20052;-50
2021/06/13 11:04:48;;;;;;;5.05;1.45;;;;;;;20.69;43.98;100167.38;5096608;28;20051;-51
2021/06/13 11:07:29;;;;;;;8.45;1.65;;;;;;;20.81;44.33;100192.38;5095728;28;20036;-51
2021/06/13 11:12:49;;;;;;;4.90;1.27;;;;;;;20.97;42.67;100173.66;5096392;28;20107;-50
2021/06/13 11:15:38;;;;;;;4.43;0.90;;;;;;;20.95;42.90;100179.06;5096147;28;20113;-51
2021/06/13 11:18:04;;;;;;;3.72;0.90;;;;;;;20.99;43.70;100169.09;5095837;28;20059;-51
2021/06/13 11:20:31;;;;;;;5.97;1.10;;;;;;;21.14;43.55;100176.13;5096125;28;20048;-51
2021/06/13 11:22:58;;;;;;;5.07;1.20;;;;;;;21.16;41.35;100184.03;5095839;28;20044;-50
2021/06/13 11:25:27;;;;;;;7.97;1.20;;;;;;;21.22;40.70;100170.28;5095639;28;20048;-51
2021/06/13 11:28:19;;;;;;;5.10;1.52;;;;;;;21.31;41.56;100172.38;5095229;28;20108;-51
2021/06/13 11:30:52;;;;;;;6.55;2.10;;;;;;;21.46;41.44;100165.25;5095067;28;20040;-51
2021/06/13 11:33:34;;;;;;;8.35;1.77;;;;;;;21.58;41.06;100174.25;5096156;28;20040;-51
2021/06/13 11:36:16;;;;;;;9.73;2.03;;;;;;;21.60;41.38;100175.00;5096354;28;20040;-51
2021/06/13 11:38:47;;;;;;;6.53;1.13;;;;;;;21.69;42.60;100175.25;5094844;28;20139;-50